Doebay, Washington
Current Conditions -  °F | °C
As of 6:15 PM on Thursday 20 Nov 2014 (Local Time) from KORS Reporting Station
Light Rain Light Rain  
Wind Chill: 50°   Ceiling: Unl
Heat Index: 50°   Visibility: 7mi
Dew Point: 48°   Wind: 5mph
Humidity: 94%   Direction: 180°S
Pressure: 29.89"   Gusts: NA
Location:  48.6597°N, 122.828°W
Report Text: KORS 210215Z AUTO 18004KT 7SM -RA FEW016 FEW039 SCT048 10/09 A2989 RMK AO2
Loading
Personal Weather Stations






























Interactive Weather Map New forecast layout! Learn more

10-Day Weather Forecast

Advertisements
Track Severe Weather on mobile